sensor_id;sensor_type;location;lat;lon;timestamp;temperature;humidity
29341;DHT22;16337;59.536;13.468;2023-05-10T00:00:34;5.70;99.90
29341;DHT22;16337;59.536;13.468;2023-05-10T00:02:59;5.60;99.90
29341;DHT22;16337;59.536;13.468;2023-05-10T00:05:25;5.50;99.90
29341;DHT22;16337;59.536;13.468;2023-05-10T00:07:51;5.50;99.90
29341;DHT22;16337;59.536;13.468;2023-05-10T00:10:16;5.50;99.90
29341;DHT22;16337;59.536;13.468;2023-05-10T00:12:42;5.50;99.90
29341;DHT22;16337;59.536;13.468;2023-05-10T00:15:08;5.50;99.90
29341;DHT22;16337;59.536;13.468;2023-05-10T00:17:35;5.40;99.90
29341;DHT22;16337;59.536;13.468;2023-05-10T00:20:00;5.30;99.90
29341;DHT22;16337;59.536;13.468;2023-05-10T00:22:26;5.20;99.90
29341;DHT22;16337;59.536;13.468;2023-05-10T00:24:52;5.10;99.90
29341;DHT22;16337;59.536;13.468;2023-05-10T00:27:17;5.10;99.90
29341;DHT22;16337;59.536;13.468;2023-05-10T00:29:43;5.00;99.90
29341;DHT22;16337;59.536;13.468;2023-05-10T00:32:09;4.90;99.90
29341;DHT22;16337;59.536;13.468;2023-05-10T00:34:34;4.90;99.90
29341;DHT22;16337;59.536;13.468;2023-05-10T00:37:00;4.90;99.90
29341;DHT22;16337;59.536;13.468;2023-05-10T00:39:26;4.90;99.90
29341;DHT22;16337;59.536;13.468;2023-05-10T00:41:54;4.90;99.90
29341;DHT22;16337;59.536;13.468;2023-05-10T00:44:20;5.00;99.90
29341;DHT22;16337;59.536;13.468;2023-05-10T00:46:46;5.00;99.90
29341;DHT22;16337;59.536;13.468;2023-05-10T00:49:13;4.90;99.90
29341;DHT22;16337;59.536;13.468;2023-05-10T00:51:39;4.80;99.90
29341;DHT22;16337;59.536;13.468;2023-05-10T00:54:05;4.80;99.90
29341;DHT22;16337;59.536;13.468;2023-05-10T00:56:32;4.70;99.90
29341;DHT22;16337;59.536;13.468;2023-05-10T00:58:57;4.60;99.90
29341;DHT22;16337;59.536;13.468;2023-05-10T01:01:23;4.50;99.90
29341;DHT22;16337;59.536;13.468;2023-05-10T01:03:49;4.50;99.90
29341;DHT22;16337;59.536;13.468;2023-05-10T01:06:15;4.40;99.90
29341;DHT22;16337;59.536;13.468;2023-05-10T01:08:41;4.30;99.90
29341;DHT22;16337;59.536;13.468;2023-05-10T01:11:07;4.30;99.90
29341;DHT22;16337;59.536;13.468;2023-05-10T01:13:38;4.30;99.90
29341;DHT22;16337;59.536;13.468;2023-05-10T01:16:05;4.30;99.90
29341;DHT22;16337;59.536;13.468;2023-05-10T01:18:38;4.30;99.90
29341;DHT22;16337;59.536;13.468;2023-05-10T01:23:41;4.30;99.90
29341;DHT22;16337;59.536;13.468;2023-05-10T01:34:02;4.20;99.90
29341;DHT22;16337;59.536;13.468;2023-05-10T01:36:48;4.20;99.90
29341;DHT22;16337;59.536;13.468;2023-05-10T01:39:24;4.20;99.90
29341;DHT22;16337;59.536;13.468;2023-05-10T01:47:55;4.50;99.90
29341;DHT22;16337;59.536;13.468;2023-05-10T01:50:19;4.60;99.90
29341;DHT22;16337;59.536;13.468;2023-05-10T01:52:51;4.50;99.90
29341;DHT22;16337;59.536;13.468;2023-05-10T01:55:21;4.40;99.90
29341;DHT22;16337;59.536;13.468;2023-05-10T01:57:51;4.30;99.90
29341;DHT22;16337;59.536;13.468;2023-05-10T02:00:19;4.20;99.90
29341;DHT22;16337;59.536;13.468;2023-05-10T02:02:46;4.10;99.90
29341;DHT22;16337;59.536;13.468;2023-05-10T02:05:14;4.00;99.90
29341;DHT22;16337;59.536;13.468;2023-05-10T02:07:41;4.00;99.90
29341;DHT22;16337;59.536;13.468;2023-05-10T02:10:09;3.90;99.90
29341;DHT22;16337;59.536;13.468;2023-05-10T02:12:39;3.90;99.90
29341;DHT22;16337;59.536;13.468;2023-05-10T02:15:07;3.80;99.90
29341;DHT22;16337;59.536;13.468;2023-05-10T02:17:35;3.70;99.90
29341;DHT22;16337;59.536;13.468;2023-05-10T02:20:03;3.70;99.90
29341;DHT22;16337;59.536;13.468;2023-05-10T02:22:31;3.70;99.90
29341;DHT22;16337;59.536;13.468;2023-05-10T02:24:58;3.60;99.90
29341;DHT22;16337;59.536;13.468;2023-05-10T02:27:25;3.60;99.90
29341;DHT22;16337;59.536;13.468;2023-05-10T02:29:53;3.50;99.90
29341;DHT22;16337;59.536;13.468;2023-05-10T02:32:21;3.50;99.90
29341;DHT22;16337;59.536;13.468;2023-05-10T02:34:48;3.50;99.90
29341;DHT22;16337;59.536;13.468;2023-05-10T02:37:19;3.50;99.90
29341;DHT22;16337;59.536;13.468;2023-05-10T02:39:47;3.50;99.90
29341;DHT22;16337;59.536;13.468;2023-05-10T02:42:16;3.50;99.90
29341;DHT22;16337;59.536;13.468;2023-05-10T02:44:44;3.40;99.90
29341;DHT22;16337;59.536;13.468;2023-05-10T02:47:11;3.40;99.90
29341;DHT22;16337;59.536;13.468;2023-05-10T02:49:37;3.40;99.90
29341;DHT22;16337;59.536;13.468;2023-05-10T02:52:05;3.40;99.90
29341;DHT22;16337;59.536;13.468;2023-05-10T02:54:38;3.40;99.90
29341;DHT22;16337;59.536;13.468;2023-05-10T02:57:05;3.40;99.90
29341;DHT22;16337;59.536;13.468;2023-05-10T02:59:32;3.30;99.90
29341;DHT22;16337;59.536;13.468;2023-05-10T03:02:02;3.30;99.90
29341;DHT22;16337;59.536;13.468;2023-05-10T03:04:28;3.30;99.90
29341;DHT22;16337;59.536;13.468;2023-05-10T03:06:54;3.30;99.90
29341;DHT22;16337;59.536;13.468;2023-05-10T03:09:20;3.30;99.90
29341;DHT22;16337;59.536;13.468;2023-05-10T03:12:15;3.30;99.90
29341;DHT22;16337;59.536;13.468;2023-05-10T03:20:26;3.40;99.90
29341;DHT22;16337;59.536;13.468;2023-05-10T03:25:43;3.40;99.90
29341;DHT22;16337;59.536;13.468;2023-05-10T03:28:09;3.40;99.90
29341;DHT22;16337;59.536;13.468;2023-05-10T03:30:35;3.40;99.90
29341;DHT22;16337;59.536;13.468;2023-05-10T03:33:08;3.40;99.90
29341;DHT22;16337;59.536;13.468;2023-05-10T03:35:33;3.50;99.90
29341;DHT22;16337;59.536;13.468;2023-05-10T03:37:59;3.50;99.90
29341;DHT22;16337;59.536;13.468;2023-05-10T03:40:26;3.50;99.90
29341;DHT22;16337;59.536;13.468;2023-05-10T03:42:55;3.50;99.90
29341;DHT22;16337;59.536;13.468;2023-05-10T03:45:20;3.50;99.90
29341;DHT22;16337;59.536;13.468;2023-05-10T03:47:46;3.60;99.90
29341;DHT22;16337;59.536;13.468;2023-05-10T03:50:12;3.60;99.90
29341;DHT22;16337;59.536;13.468;2023-05-10T03:52:37;3.70;99.90
29341;DHT22;16337;59.536;13.468;2023-05-10T03:55:05;3.70;99.90
29341;DHT22;16337;59.536;13.468;2023-05-10T03:57:31;3.80;99.90
29341;DHT22;16337;59.536;13.468;2023-05-10T03:59:57;3.90;99.90
29341;DHT22;16337;59.536;13.468;2023-05-10T04:02:23;4.00;99.90
29341;DHT22;16337;59.536;13.468;2023-05-10T04:04:49;4.00;99.90
29341;DHT22;16337;59.536;13.468;2023-05-10T04:07:14;4.10;99.90
29341;DHT22;16337;59.536;13.468;2023-05-10T04:09:40;4.20;99.90
29341;DHT22;16337;59.536;13.468;2023-05-10T04:12:06;4.20;99.90
29341;DHT22;16337;59.536;13.468;2023-05-10T04:14:32;4.30;99.90
29341;DHT22;16337;59.536;13.468;2023-05-10T04:17:04;4.30;99.90
29341;DHT22;16337;59.536;13.468;2023-05-10T04:19:31;4.40;99.90
29341;DHT22;16337;59.536;13.468;2023-05-10T04:21:57;4.60;99.90
29341;DHT22;16337;59.536;13.468;2023-05-10T04:24:23;4.70;99.90
29341;DHT22;16337;59.536;13.468;2023-05-10T04:26:49;4.90;99.90
29341;DHT22;16337;59.536;13.468;2023-05-10T04:29:14;5.10;99.90
29341;DHT22;16337;59.536;13.468;2023-05-10T04:31:40;5.30;99.90
29341;DHT22;16337;59.536;13.468;2023-05-10T04:34:06;5.50;99.90
29341;DHT22;16337;59.536;13.468;2023-05-10T04:36:32;5.60;99.90
29341;DHT22;16337;59.536;13.468;2023-05-10T04:39:02;5.80;99.90
29341;DHT22;16337;59.536;13.468;2023-05-10T04:41:28;6.00;99.90
29341;DHT22;16337;59.536;13.468;2023-05-10T04:43:54;6.20;99.90
29341;DHT22;16337;59.536;13.468;2023-05-10T04:46:20;6.40;99.90
29341;DHT22;16337;59.536;13.468;2023-05-10T04:48:46;6.60;99.90
29341;DHT22;16337;59.536;13.468;2023-05-10T04:51:12;6.80;99.90
29341;DHT22;16337;59.536;13.468;2023-05-10T04:53:37;7.00;99.90
29341;DHT22;16337;59.536;13.468;2023-05-10T04:56:03;7.10;99.90
29341;DHT22;16337;59.536;13.468;2023-05-10T04:58:29;7.30;99.90
29341;DHT22;16337;59.536;13.468;2023-05-10T05:00:55;7.40;99.90
29341;DHT22;16337;59.536;13.468;2023-05-10T05:03:21;7.50;99.90
29341;DHT22;16337;59.536;13.468;2023-05-10T05:05:47;7.70;99.90
29341;DHT22;16337;59.536;13.468;2023-05-10T05:08:13;7.80;99.90
29341;DHT22;16337;59.536;13.468;2023-05-10T05:10:39;7.90;99.90
29341;DHT22;16337;59.536;13.468;2023-05-10T05:13:05;8.00;99.90
29341;DHT22;16337;59.536;13.468;2023-05-10T05:15:31;8.10;99.90
29341;DHT22;16337;59.536;13.468;2023-05-10T05:17:57;8.30;99.90
29341;DHT22;16337;59.536;13.468;2023-05-10T05:20:22;8.40;99.90
29341;DHT22;16337;59.536;13.468;2023-05-10T05:22:48;8.60;99.90
29341;DHT22;16337;59.536;13.468;2023-05-10T05:25:15;8.70;99.90
29341;DHT22;16337;59.536;13.468;2023-05-10T05:27:41;8.90;99.90
29341;DHT22;16337;59.536;13.468;2023-05-10T05:30:07;9.10;99.90
29341;DHT22;16337;59.536;13.468;2023-05-10T05:32:33;9.30;99.90
29341;DHT22;16337;59.536;13.468;2023-05-10T05:34:59;9.50;99.90
29341;DHT22;16337;59.536;13.468;2023-05-10T05:37:25;9.60;99.90
29341;DHT22;16337;59.536;13.468;2023-05-10T05:39:51;9.80;99.90
29341;DHT22;16337;59.536;13.468;2023-05-10T05:42:16;9.90;99.90
29341;DHT22;16337;59.536;13.468;2023-05-10T05:44:44;10.10;99.90
29341;DHT22;16337;59.536;13.468;2023-05-10T05:47:13;10.20;99.90
29341;DHT22;16337;59.536;13.468;2023-05-10T05:49:40;10.40;99.90
29341;DHT22;16337;59.536;13.468;2023-05-10T05:52:05;10.60;99.90
29341;DHT22;16337;59.536;13.468;2023-05-10T05:54:31;10.70;99.90
29341;DHT22;16337;59.536;13.468;2023-05-10T05:56:58;10.80;99.90
29341;DHT22;16337;59.536;13.468;2023-05-10T05:59:24;11.00;99.90
29341;DHT22;16337;59.536;13.468;2023-05-10T06:01:50;11.10;99.90
29341;DHT22;16337;59.536;13.468;2023-05-10T06:04:17;11.30;99.90
29341;DHT22;16337;59.536;13.468;2023-05-10T06:06:42;11.40;99.90
29341;DHT22;16337;59.536;13.468;2023-05-10T06:09:08;11.60;99.90
29341;DHT22;16337;59.536;13.468;2023-05-10T06:11:34;11.80;99.90
29341;DHT22;16337;59.536;13.468;2023-05-10T06:14:01;11.90;99.90
29341;DHT22;16337;59.536;13.468;2023-05-10T06:16:27;12.20;99.90
29341;DHT22;16337;59.536;13.468;2023-05-10T06:18:53;12.30;99.90
29341;DHT22;16337;59.536;13.468;2023-05-10T06:21:19;12.50;99.90
29341;DHT22;16337;59.536;13.468;2023-05-10T06:23:45;12.60;99.90
29341;DHT22;16337;59.536;13.468;2023-05-10T06:26:10;12.70;99.90
29341;DHT22;16337;59.536;13.468;2023-05-10T06:28:36;12.90;99.90
29341;DHT22;16337;59.536;13.468;2023-05-10T06:31:06;13.00;99.90
29341;DHT22;16337;59.536;13.468;2023-05-10T06:33:33;13.30;99.90
29341;DHT22;16337;59.536;13.468;2023-05-10T06:35:58;13.40;99.90
29341;DHT22;16337;59.536;13.468;2023-05-10T06:38:24;13.50;99.90
29341;DHT22;16337;59.536;13.468;2023-05-10T06:40:50;13.70;99.90
29341;DHT22;16337;59.536;13.468;2023-05-10T06:43:16;13.90;99.90
29341;DHT22;16337;59.536;13.468;2023-05-10T06:45:42;14.00;99.90
29341;DHT22;16337;59.536;13.468;2023-05-10T06:48:08;14.20;99.90
29341;DHT22;16337;59.536;13.468;2023-05-10T06:50:34;14.30;99.90
29341;DHT22;16337;59.536;13.468;2023-05-10T06:53:00;14.20;99.90
29341;DHT22;16337;59.536;13.468;2023-05-10T06:55:27;14.30;99.90
29341;DHT22;16337;59.536;13.468;2023-05-10T06:57:52;14.60;99.90
29341;DHT22;16337;59.536;13.468;2023-05-10T07:00:19;14.60;99.90
29341;DHT22;16337;59.536;13.468;2023-05-10T07:02:45;14.80;99.90
29341;DHT22;16337;59.536;13.468;2023-05-10T07:05:10;14.80;99.90
29341;DHT22;16337;59.536;13.468;2023-05-10T07:07:37;14.80;99.90
29341;DHT22;16337;59.536;13.468;2023-05-10T07:10:03;14.90;99.90
29341;DHT22;16337;59.536;13.468;2023-05-10T07:12:29;15.10;99.90
29341;DHT22;16337;59.536;13.468;2023-05-10T07:14:55;15.20;99.90
29341;DHT22;16337;59.536;13.468;2023-05-10T07:17:20;15.20;99.90
29341;DHT22;16337;59.536;13.468;2023-05-10T07:19:46;15.30;99.90
29341;DHT22;16337;59.536;13.468;2023-05-10T07:22:12;15.30;99.90
29341;DHT22;16337;59.536;13.468;2023-05-10T07:24:38;15.60;99.90
29341;DHT22;16337;59.536;13.468;2023-05-10T07:27:04;15.80;99.90
29341;DHT22;16337;59.536;13.468;2023-05-10T07:29:29;16.10;99.90
29341;DHT22;16337;59.536;13.468;2023-05-10T07:31:55;15.90;99.90
29341;DHT22;16337;59.536;13.468;2023-05-10T07:34:21;15.60;99.90
29341;DHT22;16337;59.536;13.468;2023-05-10T07:36:47;15.90;99.90
29341;DHT22;16337;59.536;13.468;2023-05-10T07:39:13;16.10;99.90
29341;DHT22;16337;59.536;13.468;2023-05-10T07:41:38;16.30;99.90
29341;DHT22;16337;59.536;13.468;2023-05-10T07:44:05;16.50;99.80
29341;DHT22;16337;59.536;13.468;2023-05-10T07:46:31;16.60;99.20
29341;DHT22;16337;59.536;13.468;2023-05-10T07:48:57;16.40;98.20
29341;DHT22;16337;59.536;13.468;2023-05-10T07:51:22;16.30;98.40
29341;DHT22;16337;59.536;13.468;2023-05-10T07:53:48;16.30;96.30
29341;DHT22;16337;59.536;13.468;2023-05-10T07:56:27;16.60;96.30
29341;DHT22;16337;59.536;13.468;2023-05-10T07:58:58;17.00;96.60
29341;DHT22;16337;59.536;13.468;2023-05-10T08:01:25;17.20;96.30
29341;DHT22;16337;59.536;13.468;2023-05-10T08:03:51;17.70;97.10
29341;DHT22;16337;59.536;13.468;2023-05-10T08:06:19;18.00;96.00
29341;DHT22;16337;59.536;13.468;2023-05-10T08:08:46;18.10;93.60
29341;DHT22;16337;59.536;13.468;2023-05-10T08:11:18;18.00;93.80
29341;DHT22;16337;59.536;13.468;2023-05-10T08:13:45;17.60;92.20
29341;DHT22;16337;59.536;13.468;2023-05-10T08:16:10;17.40;93.80
29341;DHT22;16337;59.536;13.468;2023-05-10T08:18:37;17.50;93.10
29341;DHT22;16337;59.536;13.468;2023-05-10T08:21:03;17.40;93.00
29341;DHT22;16337;59.536;13.468;2023-05-10T08:23:28;17.50;92.60
29341;DHT22;16337;59.536;13.468;2023-05-10T08:25:54;17.90;91.90
29341;DHT22;16337;59.536;13.468;2023-05-10T08:28:20;17.80;91.70
29341;DHT22;16337;59.536;13.468;2023-05-10T08:30:45;18.40;92.20
29341;DHT22;16337;59.536;13.468;2023-05-10T08:33:11;19.00;91.40
29341;DHT22;16337;59.536;13.468;2023-05-10T08:35:37;19.10;90.40
29341;DHT22;16337;59.536;13.468;2023-05-10T08:38:05;19.40;90.60
29341;DHT22;16337;59.536;13.468;2023-05-10T08:40:31;19.10;88.30
29341;DHT22;16337;59.536;13.468;2023-05-10T08:43:05;18.70;90.10
29341;DHT22;16337;59.536;13.468;2023-05-10T08:45:33;19.10;88.70
29341;DHT22;16337;59.536;13.468;2023-05-10T08:48:02;18.70;87.30
29341;DHT22;16337;59.536;13.468;2023-05-10T08:50:28;19.10;87.80
29341;DHT22;16337;59.536;13.468;2023-05-10T08:52:58;18.80;86.20
29341;DHT22;16337;59.536;13.468;2023-05-10T08:55:25;18.80;86.70
29341;DHT22;16337;59.536;13.468;2023-05-10T08:57:51;18.90;86.80
29341;DHT22;16337;59.536;13.468;2023-05-10T09:00:18;18.60;89.90
29341;DHT22;16337;59.536;13.468;2023-05-10T09:02:44;18.80;87.30
29341;DHT22;16337;59.536;13.468;2023-05-10T09:05:12;19.00;87.80
29341;DHT22;16337;59.536;13.468;2023-05-10T09:07:38;19.10;87.30
29341;DHT22;16337;59.536;13.468;2023-05-10T09:10:04;19.20;83.40
29341;DHT22;16337;59.536;13.468;2023-05-10T09:12:30;19.40;85.80
29341;DHT22;16337;59.536;13.468;2023-05-10T09:14:58;20.20;83.70
29341;DHT22;16337;59.536;13.468;2023-05-10T09:17:25;20.50;82.20
29341;DHT22;16337;59.536;13.468;2023-05-10T09:20:03;20.30;80.70
29341;DHT22;16337;59.536;13.468;2023-05-10T09:22:30;20.80;82.50
29341;DHT22;16337;59.536;13.468;2023-05-10T09:27:33;20.50;76.20
29341;DHT22;16337;59.536;13.468;2023-05-10T09:29:58;20.60;76.50
29341;DHT22;16337;59.536;13.468;2023-05-10T09:32:44;20.50;76.80
29341;DHT22;16337;59.536;13.468;2023-05-10T09:35:12;21.30;80.10
29341;DHT22;16337;59.536;13.468;2023-05-10T09:37:48;21.80;79.70
29341;DHT22;16337;59.536;13.468;2023-05-10T09:40:25;21.50;72.10
29341;DHT22;16337;59.536;13.468;2023-05-10T09:45:27;21.30;75.80
29341;DHT22;16337;59.536;13.468;2023-05-10T09:47:53;21.40;74.90
29341;DHT22;16337;59.536;13.468;2023-05-10T09:50:19;21.30;72.80
29341;DHT22;16337;59.536;13.468;2023-05-10T09:52:49;21.80;76.40
29341;DHT22;16337;59.536;13.468;2023-05-10T09:55:18;21.70;70.30
29341;DHT22;16337;59.536;13.468;2023-05-10T09:57:44;21.90;72.00
29341;DHT22;16337;59.536;13.468;2023-05-10T10:00:10;21.60;70.80
29341;DHT22;16337;59.536;13.468;2023-05-10T10:02:36;21.60;68.40
29341;DHT22;16337;59.536;13.468;2023-05-10T10:05:02;21.60;67.80
29341;DHT22;16337;59.536;13.468;2023-05-10T10:07:31;22.10;74.00
29341;DHT22;16337;59.536;13.468;2023-05-10T10:09:58;22.30;68.10
29341;DHT22;16337;59.536;13.468;2023-05-10T10:12:25;22.40;69.30
29341;DHT22;16337;59.536;13.468;2023-05-10T10:14:51;21.90;67.10
29341;DHT22;16337;59.536;13.468;2023-05-10T10:17:19;22.10;67.80
29341;DHT22;16337;59.536;13.468;2023-05-10T10:19:45;21.80;66.50
29341;DHT22;16337;59.536;13.468;2023-05-10T10:22:12;21.90;67.20
29341;DHT22;16337;59.536;13.468;2023-05-10T10:24:38;22.10;66.00
29341;DHT22;16337;59.536;13.468;2023-05-10T10:29:50;22.00;66.00
29341;DHT22;16337;59.536;13.468;2023-05-10T10:35:00;22.00;67.50
29341;DHT22;16337;59.536;13.468;2023-05-10T10:37:44;22.60;68.00
29341;DHT22;16337;59.536;13.468;2023-05-10T10:40:30;22.80;67.20
29341;DHT22;16337;59.536;13.468;2023-05-10T10:42:56;22.80;68.70
29341;DHT22;16337;59.536;13.468;2023-05-10T10:45:23;22.80;66.80
29341;DHT22;16337;59.536;13.468;2023-05-10T10:50:45;23.10;66.20
29341;DHT22;16337;59.536;13.468;2023-05-10T10:53:13;22.90;66.80
29341;DHT22;16337;59.536;13.468;2023-05-10T10:55:46;23.00;63.90
29341;DHT22;16337;59.536;13.468;2023-05-10T10:58:29;23.20;67.10
29341;DHT22;16337;59.536;13.468;2023-05-10T11:01:18;22.70;68.80
29341;DHT22;16337;59.536;13.468;2023-05-10T11:06:29;22.70;66.20
29341;DHT22;16337;59.536;13.468;2023-05-10T11:08:57;22.50;68.10
29341;DHT22;16337;59.536;13.468;2023-05-10T11:11:23;23.10;68.40
29341;DHT22;16337;59.536;13.468;2023-05-10T11:13:49;22.90;66.30
29341;DHT22;16337;59.536;13.468;2023-05-10T11:16:19;22.50;67.00
29341;DHT22;16337;59.536;13.468;2023-05-10T11:19:03;22.90;69.00
29341;DHT22;16337;59.536;13.468;2023-05-10T11:21:31;23.40;67.70
29341;DHT22;16337;59.536;13.468;2023-05-10T11:23:58;23.30;64.00
29341;DHT22;16337;59.536;13.468;2023-05-10T11:26:25;22.90;67.80
29341;DHT22;16337;59.536;13.468;2023-05-10T11:28:53;22.50;65.80
29341;DHT22;16337;59.536;13.468;2023-05-10T11:31:24;22.80;69.30
29341;DHT22;16337;59.536;13.468;2023-05-10T11:33:57;22.90;64.90
29341;DHT22;16337;59.536;13.468;2023-05-10T11:36:28;23.10;64.40
29341;DHT22;16337;59.536;13.468;2023-05-10T11:38:55;23.30;66.80
29341;DHT22;16337;59.536;13.468;2023-05-10T11:41:22;23.40;68.10
29341;DHT22;16337;59.536;13.468;2023-05-10T11:43:53;24.00;64.50
29341;DHT22;16337;59.536;13.468;2023-05-10T11:46:20;24.50;67.00
29341;DHT22;16337;59.536;13.468;2023-05-10T11:48:49;24.20;64.10
29341;DHT22;16337;59.536;13.468;2023-05-10T11:51:19;24.20;64.10
29341;DHT22;16337;59.536;13.468;2023-05-10T11:53:45;23.50;62.30
29341;DHT22;16337;59.536;13.468;2023-05-10T11:56:11;23.60;64.60
29341;DHT22;16337;59.536;13.468;2023-05-10T11:58:38;24.00;64.00
29341;DHT22;16337;59.536;13.468;2023-05-10T12:01:07;24.10;65.70
29341;DHT22;16337;59.536;13.468;2023-05-10T12:03:33;23.90;62.60
29341;DHT22;16337;59.536;13.468;2023-05-10T12:06:00;23.40;63.90
29341;DHT22;16337;59.536;13.468;2023-05-10T12:08:28;23.30;64.80
29341;DHT22;16337;59.536;13.468;2023-05-10T12:11:05;23.10;65.10
29341;DHT22;16337;59.536;13.468;2023-05-10T12:13:31;22.90;64.60
29341;DHT22;16337;59.536;13.468;2023-05-10T12:16:15;22.30;65.40
29341;DHT22;16337;59.536;13.468;2023-05-10T12:18:41;23.00;65.00
29341;DHT22;16337;59.536;13.468;2023-05-10T12:21:11;23.30;63.00
29341;DHT22;16337;59.536;13.468;2023-05-10T12:23:38;23.60;64.60
29341;DHT22;16337;59.536;13.468;2023-05-10T12:26:04;24.50;64.30
29341;DHT22;16337;59.536;13.468;2023-05-10T12:28:31;24.80;61.70
29341;DHT22;16337;59.536;13.468;2023-05-10T12:30:59;24.60;59.90
29341;DHT22;16337;59.536;13.468;2023-05-10T12:33:25;24.40;61.90
29341;DHT22;16337;59.536;13.468;2023-05-10T12:35:52;24.30;60.70
29341;DHT22;16337;59.536;13.468;2023-05-10T12:38:35;24.70;62.10
29341;DHT22;16337;59.536;13.468;2023-05-10T12:41:04;24.90;62.70
29341;DHT22;16337;59.536;13.468;2023-05-10T12:43:31;24.40;60.50
29341;DHT22;16337;59.536;13.468;2023-05-10T12:45:57;24.30;60.70
29341;DHT22;16337;59.536;13.468;2023-05-10T12:48:24;24.30;63.00
29341;DHT22;16337;59.536;13.468;2023-05-10T12:50:50;23.70;60.00
29341;DHT22;16337;59.536;13.468;2023-05-10T12:53:16;22.90;61.30
29341;DHT22;16337;59.536;13.468;2023-05-10T12:55:45;23.30;60.60
29341;DHT22;16337;59.536;13.468;2023-05-10T12:58:10;23.10;59.90
29341;DHT22;16337;59.536;13.468;2023-05-10T13:00:36;23.20;62.10
29341;DHT22;16337;59.536;13.468;2023-05-10T13:03:04;23.20;61.00
29341;DHT22;16337;59.536;13.468;2023-05-10T13:05:32;23.00;61.40
29341;DHT22;16337;59.536;13.468;2023-05-10T13:07:58;22.90;61.00
29341;DHT22;16337;59.536;13.468;2023-05-10T13:10:24;23.00;60.90
29341;DHT22;16337;59.536;13.468;2023-05-10T13:12:50;22.90;60.10
29341;DHT22;16337;59.536;13.468;2023-05-10T13:15:16;22.90;61.90
29341;DHT22;16337;59.536;13.468;2023-05-10T13:17:42;23.00;64.80
29341;DHT22;16337;59.536;13.468;2023-05-10T13:20:08;23.10;62.60
29341;DHT22;16337;59.536;13.468;2023-05-10T13:22:35;23.40;61.70
29341;DHT22;16337;59.536;13.468;2023-05-10T13:25:01;23.90;61.80
29341;DHT22;16337;59.536;13.468;2023-05-10T13:27:27;24.00;59.40
29341;DHT22;16337;59.536;13.468;2023-05-10T13:29:53;24.10;61.30
29341;DHT22;16337;59.536;13.468;2023-05-10T13:32:20;24.30;61.00
29341;DHT22;16337;59.536;13.468;2023-05-10T13:34:46;23.90;61.50
29341;DHT22;16337;59.536;13.468;2023-05-10T13:37:11;24.20;61.80
29341;DHT22;16337;59.536;13.468;2023-05-10T13:39:37;23.90;59.70
29341;DHT22;16337;59.536;13.468;2023-05-10T13:42:03;23.70;59.90
29341;DHT22;16337;59.536;13.468;2023-05-10T13:44:29;23.50;62.30
29341;DHT22;16337;59.536;13.468;2023-05-10T13:46:56;23.60;62.50
29341;DHT22;16337;59.536;13.468;2023-05-10T13:49:22;24.20;60.60
29341;DHT22;16337;59.536;13.468;2023-05-10T13:51:48;24.30;62.00
29341;DHT22;16337;59.536;13.468;2023-05-10T13:54:14;24.30;61.00
29341;DHT22;16337;59.536;13.468;2023-05-10T13:56:41;23.90;61.60
29341;DHT22;16337;59.536;13.468;2023-05-10T13:59:07;24.20;60.10
29341;DHT22;16337;59.536;13.468;2023-05-10T14:01:33;24.10;58.80
29341;DHT22;16337;59.536;13.468;2023-05-10T14:03:59;23.90;60.30
29341;DHT22;16337;59.536;13.468;2023-05-10T14:06:25;23.90;60.60
29341;DHT22;16337;59.536;13.468;2023-05-10T14:08:52;23.60;59.30
29341;DHT22;16337;59.536;13.468;2023-05-10T14:11:19;23.30;60.20
29341;DHT22;16337;59.536;13.468;2023-05-10T14:13:45;23.30;61.60
29341;DHT22;16337;59.536;13.468;2023-05-10T14:16:11;22.70;60.50
29341;DHT22;16337;59.536;13.468;2023-05-10T14:18:37;22.90;60.80
29341;DHT22;16337;59.536;13.468;2023-05-10T14:21:03;22.90;64.10
29341;DHT22;16337;59.536;13.468;2023-05-10T14:23:29;23.10;60.10
29341;DHT22;16337;59.536;13.468;2023-05-10T14:25:55;23.50;62.50
29341;DHT22;16337;59.536;13.468;2023-05-10T14:28:21;23.80;59.40
29341;DHT22;16337;59.536;13.468;2023-05-10T14:30:49;24.00;58.50
29341;DHT22;16337;59.536;13.468;2023-05-10T14:33:16;23.80;59.00
29341;DHT22;16337;59.536;13.468;2023-05-10T14:35:41;23.20;58.90
29341;DHT22;16337;59.536;13.468;2023-05-10T14:38:07;23.10;60.20
29341;DHT22;16337;59.536;13.468;2023-05-10T14:40:33;23.10;61.40
29341;DHT22;16337;59.536;13.468;2023-05-10T14:42:59;23.10;60.90
29341;DHT22;16337;59.536;13.468;2023-05-10T14:45:24;23.20;60.40
29341;DHT22;16337;59.536;13.468;2023-05-10T14:47:50;23.50;61.70
29341;DHT22;16337;59.536;13.468;2023-05-10T14:50:16;23.10;59.40
29341;DHT22;16337;59.536;13.468;2023-05-10T14:52:43;22.70;59.90
29341;DHT22;16337;59.536;13.468;2023-05-10T14:55:09;22.50;61.60
29341;DHT22;16337;59.536;13.468;2023-05-10T14:57:36;22.70;62.00
29341;DHT22;16337;59.536;13.468;2023-05-10T15:00:02;23.20;62.00
29341;DHT22;16337;59.536;13.468;2023-05-10T15:02:30;23.60;59.70
29341;DHT22;16337;59.536;13.468;2023-05-10T15:04:55;23.40;58.90
29341;DHT22;16337;59.536;13.468;2023-05-10T15:07:23;22.40;59.90
29341;DHT22;16337;59.536;13.468;2023-05-10T15:09:49;22.40;61.20
29341;DHT22;16337;59.536;13.468;2023-05-10T15:12:15;22.60;61.70
29341;DHT22;16337;59.536;13.468;2023-05-10T15:14:41;22.40;59.60
29341;DHT22;16337;59.536;13.468;2023-05-10T15:17:07;22.70;60.30
29341;DHT22;16337;59.536;13.468;2023-05-10T15:19:33;22.80;62.70
29341;DHT22;16337;59.536;13.468;2023-05-10T15:21:59;22.80;59.60
29341;DHT22;16337;59.536;13.468;2023-05-10T15:24:25;22.90;59.90
29341;DHT22;16337;59.536;13.468;2023-05-10T15:26:51;23.00;61.00
29341;DHT22;16337;59.536;13.468;2023-05-10T15:29:16;22.50;60.30
29341;DHT22;16337;59.536;13.468;2023-05-10T15:31:48;21.90;61.10
29341;DHT22;16337;59.536;13.468;2023-05-10T15:34:14;21.60;62.50
29341;DHT22;16337;59.536;13.468;2023-05-10T15:36:41;21.50;64.10
29341;DHT22;16337;59.536;13.468;2023-05-10T15:39:06;21.30;62.50
29341;DHT22;16337;59.536;13.468;2023-05-10T15:41:32;21.10;62.20
29341;DHT22;16337;59.536;13.468;2023-05-10T15:43:58;20.90;64.30
29341;DHT22;16337;59.536;13.468;2023-05-10T15:46:28;20.90;63.70
29341;DHT22;16337;59.536;13.468;2023-05-10T15:48:54;20.90;62.60
29341;DHT22;16337;59.536;13.468;2023-05-10T15:51:20;20.50;62.90
29341;DHT22;16337;59.536;13.468;2023-05-10T15:53:46;20.40;64.00
29341;DHT22;16337;59.536;13.468;2023-05-10T15:56:12;20.40;64.50
29341;DHT22;16337;59.536;13.468;2023-05-10T15:58:39;20.60;64.90
29341;DHT22;16337;59.536;13.468;2023-05-10T16:01:04;20.00;63.60